createdAt,value
2018-05-21T00:00:33.920Z,1014.97
2018-05-21T00:01:34.120Z,1014.97
2018-05-21T00:02:33.882Z,1014.99
2018-05-21T00:03:34.079Z,1014.90
2018-05-21T00:04:33.997Z,1014.97
2018-05-21T00:05:33.995Z,1014.92
2018-05-21T00:06:33.897Z,1014.93
2018-05-21T00:07:34.087Z,1014.92
2018-05-21T00:08:33.969Z,1014.94
2018-05-21T00:09:33.918Z,1014.94
2018-05-21T00:10:33.915Z,1014.98
2018-05-21T00:11:34.201Z,1014.94
2018-05-21T00:12:33.930Z,1014.98
2018-05-21T00:13:33.898Z,1014.89
2018-05-21T00:14:34.027Z,1014.91
2018-05-21T00:15:34.155Z,1014.95
2018-05-21T00:16:33.939Z,1014.97
2018-05-21T00:17:34.034Z,1014.92
2018-05-21T00:18:33.942Z,1014.90
2018-05-21T00:19:33.991Z,1014.93
2018-05-21T00:20:33.966Z,1014.88
2018-05-21T00:21:33.941Z,1014.89
2018-05-21T00:22:34.021Z,1014.93
2018-05-21T00:23:34.081Z,1014.90
2018-05-21T00:24:34.005Z,1014.89
2018-05-21T00:25:34.016Z,1014.87
2018-05-21T00:26:33.946Z,1014.83
2018-05-21T00:27:34.345Z,1014.86
2018-05-21T00:28:33.965Z,1014.89
2018-05-21T00:29:33.954Z,1014.85
2018-05-21T00:30:33.981Z,1014.82
2018-05-21T00:31:34.041Z,1014.80
2018-05-21T00:32:33.996Z,1014.84
2018-05-21T00:33:33.987Z,1014.81
2018-05-21T00:34:33.993Z,1014.84
2018-05-21T00:35:33.988Z,1014.78
2018-05-21T00:36:34.016Z,1014.84
2018-05-21T00:37:34.014Z,1014.81
2018-05-21T00:38:34.054Z,1014.82
2018-05-21T00:39:34.929Z,1014.80
2018-05-21T00:40:34.233Z,1014.80
2018-05-21T00:41:33.973Z,1014.78
2018-05-21T00:42:34.432Z,1014.78
2018-05-21T00:43:34.189Z,1014.78
2018-05-21T00:44:34.101Z,1014.81
2018-05-21T00:45:34.045Z,1014.76
2018-05-21T00:46:34.020Z,1014.77
2018-05-21T00:47:33.989Z,1014.79
2018-05-21T00:48:34.040Z,1014.78
2018-05-21T00:49:34.067Z,1014.81
2018-05-21T00:50:34.029Z,1014.75
2018-05-21T00:51:34.279Z,1014.74
2018-05-21T00:52:34.066Z,1014.72
2018-05-21T00:53:34.397Z,1014.70
2018-05-21T00:54:34.132Z,1014.73
2018-05-21T00:55:34.073Z,1014.70
2018-05-21T00:56:34.012Z,1014.67
2018-05-21T00:57:34.037Z,1014.66
2018-05-21T00:58:34.215Z,1014.67
2018-05-21T00:59:34.058Z,1014.62
2018-05-21T01:00:34.058Z,1014.64
2018-05-21T01:01:34.109Z,1014.60
2018-05-21T01:02:34.014Z,1014.58
2018-05-21T01:03:34.150Z,1014.60
2018-05-21T01:04:34.058Z,1014.57
2018-05-21T01:05:34.061Z,1014.54
2018-05-21T01:06:34.124Z,1014.53
2018-05-21T01:07:34.055Z,1014.54
2018-05-21T01:08:34.082Z,1014.52
2018-05-21T01:09:34.052Z,1014.50
2018-05-21T01:10:34.045Z,1014.55
2018-05-21T01:11:34.101Z,1014.53
2018-05-21T01:12:34.081Z,1014.53
2018-05-21T01:13:34.105Z,1014.52
2018-05-21T01:14:34.091Z,1014.52
2018-05-21T01:15:34.172Z,1014.55
2018-05-21T01:16:34.111Z,1014.53
2018-05-21T01:17:34.067Z,1014.51
2018-05-21T01:18:34.246Z,1014.48
2018-05-21T01:19:34.086Z,1014.47
2018-05-21T01:20:34.061Z,1014.44
2018-05-21T01:21:34.138Z,1014.43
2018-05-21T01:22:34.120Z,1014.42
2018-05-21T01:23:34.152Z,1014.39
2018-05-21T01:24:34.169Z,1014.42
2018-05-21T01:25:34.156Z,1014.38
2018-05-21T01:26:34.096Z,1014.40
2018-05-21T01:27:34.159Z,1014.40
2018-05-21T01:28:34.078Z,1014.40
2018-05-21T01:29:34.105Z,1014.37
2018-05-21T01:30:34.101Z,1014.39
2018-05-21T01:31:34.151Z,1014.38
2018-05-21T01:32:34.101Z,1014.40
2018-05-21T01:33:34.121Z,1014.41
2018-05-21T01:34:34.172Z,1014.40
2018-05-21T01:35:34.129Z,1014.42
2018-05-21T01:36:34.159Z,1014.46
2018-05-21T01:37:34.168Z,1014.42
2018-05-21T01:38:34.233Z,1014.40
2018-05-21T01:39:34.181Z,1014.41
2018-05-21T01:46:44.461Z,1014.40
2018-05-21T01:48:05.409Z,1014.37
2018-05-21T01:48:44.510Z,1014.36
2018-05-21T01:49:44.424Z,1014.43
2018-05-21T01:51:08.186Z,1014.38
2018-05-21T01:51:44.425Z,1014.39
2018-05-21T01:52:44.453Z,1014.37
2018-05-21T01:53:44.447Z,1014.36
2018-05-21T01:54:44.471Z,1014.38
2018-05-21T01:55:44.458Z,1014.34
2018-05-21T01:56:44.455Z,1014.35
2018-05-21T01:57:44.488Z,1014.38
2018-05-21T01:58:44.468Z,1014.40
2018-05-21T01:59:44.458Z,1014.44
2018-05-21T02:00:44.478Z,1014.41
2018-05-21T02:01:44.505Z,1014.38
2018-05-21T02:02:44.494Z,1014.37
2018-05-21T02:03:44.488Z,1014.42
2018-05-21T02:04:44.504Z,1014.38
2018-05-21T02:05:44.517Z,1014.40
2018-05-21T02:06:44.620Z,1014.38
2018-05-21T02:07:44.470Z,1014.41
2018-05-21T02:08:44.647Z,1014.36
2018-05-21T02:09:44.517Z,1014.36
2018-05-21T02:10:44.560Z,1014.38
2018-05-21T02:11:44.504Z,1014.34
2018-05-21T02:12:44.503Z,1014.36
2018-05-21T02:13:44.503Z,1014.35
2018-05-21T02:14:44.516Z,1014.32
2018-05-21T02:15:44.569Z,1014.34
2018-05-21T02:16:44.596Z,1014.31
2018-05-21T02:17:44.543Z,1014.36
2018-05-21T02:18:44.478Z,1014.33
2018-05-21T02:19:44.504Z,1014.28
2018-05-21T02:20:44.614Z,1014.34
2018-05-21T02:21:44.510Z,1014.30
2018-05-21T02:22:44.584Z,1014.30
2018-05-21T02:23:44.549Z,1014.34
2018-05-21T02:24:44.531Z,1014.29
2018-05-21T02:25:44.518Z,1014.31
2018-05-21T02:26:44.548Z,1014.32
2018-05-21T02:27:44.518Z,1014.33
2018-05-21T02:28:44.570Z,1014.32
2018-05-21T02:29:44.523Z,1014.32
2018-05-21T02:30:44.514Z,1014.33
2018-05-21T02:31:44.534Z,1014.33
2018-05-21T02:32:44.541Z,1014.30
2018-05-21T02:33:44.543Z,1014.32
2018-05-21T02:34:44.565Z,1014.27
2018-05-21T02:35:44.527Z,1014.28
2018-05-21T02:36:44.635Z,1014.30
2018-05-21T02:37:44.575Z,1014.34
2018-05-21T02:38:44.562Z,1014.33
2018-05-21T02:39:44.543Z,1014.28
2018-05-21T02:40:44.604Z,1014.31
2018-05-21T02:41:44.587Z,1014.31
2018-05-21T02:42:44.590Z,1014.30
2018-05-21T02:43:44.611Z,1014.27
2018-05-21T02:44:44.576Z,1014.27
2018-05-21T02:45:44.591Z,1014.24
2018-05-21T02:46:44.550Z,1014.23
2018-05-21T02:47:44.576Z,1014.24
2018-05-21T02:48:44.558Z,1014.27
2018-05-21T02:49:44.673Z,1014.31
2018-05-21T02:50:44.592Z,1014.26
2018-05-21T02:51:44.578Z,1014.24
2018-05-21T02:52:44.599Z,1014.23
2018-05-21T02:53:44.585Z,1014.24
2018-05-21T02:54:44.594Z,1014.22
2018-05-21T02:55:44.573Z,1014.20
2018-05-21T02:56:44.597Z,1014.18
2018-05-21T02:57:44.701Z,1014.19
2018-05-21T02:58:44.596Z,1014.10
2018-05-21T02:59:44.598Z,1014.09
2018-05-21T03:00:44.622Z,1014.14
2018-05-21T03:01:44.587Z,1014.12
2018-05-21T03:02:44.611Z,1014.09
2018-05-21T03:03:44.621Z,1014.07
2018-05-21T03:04:44.587Z,1014.15
2018-05-21T03:05:44.626Z,1014.14
2018-05-21T03:06:44.637Z,1014.15
2018-05-21T03:07:44.590Z,1014.11
2018-05-21T03:08:44.610Z,1014.12
2018-05-21T03:09:44.602Z,1014.13
2018-05-21T03:10:44.642Z,1014.11
2018-05-21T03:11:44.673Z,1014.13
2018-05-21T03:12:44.639Z,1014.09
2018-05-21T03:13:44.617Z,1014.11
2018-05-21T03:14:44.681Z,1014.11
2018-05-21T03:15:44.795Z,1014.11
2018-05-21T03:16:44.635Z,1014.15
2018-05-21T03:17:44.683Z,1014.12
2018-05-21T03:18:44.747Z,1014.06
2018-05-21T03:19:44.701Z,1014.06
2018-05-21T03:20:44.677Z,1014.07
2018-05-21T03:21:44.622Z,1014.06
2018-05-21T03:22:44.687Z,1014.04
2018-05-21T03:23:44.706Z,1013.99
2018-05-21T03:24:44.677Z,1014.04
2018-05-21T03:25:44.679Z,1014.02
2018-05-21T03:26:44.670Z,1014.03
2018-05-21T03:27:44.725Z,1014.01
2018-05-21T03:28:44.697Z,1013.97
2018-05-21T03:29:44.646Z,1014.00
2018-05-21T03:30:44.686Z,1013.93
2018-05-21T03:31:44.681Z,1013.94
2018-05-21T03:32:44.754Z,1013.96
2018-05-21T03:33:44.699Z,1013.95
2018-05-21T03:34:44.685Z,1013.96
2018-05-21T03:35:44.744Z,1013.94
2018-05-21T03:36:44.700Z,1013.89
2018-05-21T03:37:44.700Z,1013.89
2018-05-21T03:38:45.727Z,1013.92
2018-05-21T03:39:44.737Z,1013.92
2018-05-21T03:40:44.713Z,1013.92
2018-05-21T03:41:44.741Z,1013.93
2018-05-21T03:42:44.690Z,1013.96
2018-05-21T03:43:44.688Z,1013.91
2018-05-21T03:44:44.682Z,1013.94
2018-05-21T03:45:44.719Z,1014.02
2018-05-21T03:46:44.696Z,1013.95
2018-05-21T03:47:44.706Z,1013.92
2018-05-21T03:48:44.771Z,1013.98
2018-05-21T03:49:44.716Z,1013.96
2018-05-21T03:50:44.722Z,1013.97
2018-05-21T03:51:44.820Z,1013.95
2018-05-21T03:52:44.692Z,1013.96
2018-05-21T03:53:44.771Z,1013.92
2018-05-21T03:54:44.746Z,1013.93
2018-05-21T03:55:44.757Z,1013.96
2018-05-21T03:56:44.724Z,1013.90
2018-05-21T03:57:44.713Z,1013.90
2018-05-21T03:58:44.775Z,1014.02
2018-05-21T03:59:44.743Z,1013.93
2018-05-21T04:00:44.793Z,1013.90
2018-05-21T04:01:44.734Z,1013.95
2018-05-21T04:02:44.807Z,1013.90
2018-05-21T04:03:44.761Z,1013.91
2018-05-21T04:04:44.815Z,1013.90
2018-05-21T04:05:44.836Z,1013.89
2018-05-21T04:06:44.755Z,1013.92
2018-05-21T04:07:44.775Z,1013.91
2018-05-21T04:08:44.747Z,1013.94
2018-05-21T04:09:44.762Z,1013.92
2018-05-21T04:10:44.766Z,1013.92
2018-05-21T04:11:44.770Z,1013.90
2018-05-21T04:12:44.771Z,1013.92
2018-05-21T04:13:44.779Z,1013.91
2018-05-21T04:14:44.847Z,1013.86
2018-05-21T04:15:44.748Z,1013.92
2018-05-21T04:16:44.812Z,1013.89
2018-05-21T04:17:44.801Z,1013.88
2018-05-21T04:18:44.788Z,1013.96
2018-05-21T04:19:44.832Z,1013.90
2018-05-21T04:20:44.876Z,1013.93
2018-05-21T04:21:44.820Z,1013.92
2018-05-21T04:22:44.831Z,1013.90
2018-05-21T04:23:44.777Z,1013.96
2018-05-21T04:24:44.804Z,1013.92
2018-05-21T04:25:44.796Z,1013.93
2018-05-21T04:26:44.797Z,1013.94
2018-05-21T04:27:44.795Z,1013.90
2018-05-21T04:28:44.789Z,1013.90
2018-05-21T04:29:44.827Z,1013.93
2018-05-21T04:30:44.883Z,1013.88
2018-05-21T04:31:44.873Z,1013.92
2018-05-21T04:32:44.840Z,1013.91
2018-05-21T04:33:44.811Z,1013.91
2018-05-21T04:34:44.869Z,1013.93
2018-05-21T04:35:44.821Z,1013.92
2018-05-21T04:36:44.895Z,1013.95
2018-05-21T04:37:44.833Z,1013.96
2018-05-21T04:38:44.865Z,1013.95
2018-05-21T04:39:44.805Z,1013.96
2018-05-21T04:40:44.825Z,1013.93
2018-05-21T04:41:44.840Z,1013.92
2018-05-21T04:42:44.842Z,1013.90
2018-05-21T04:43:44.886Z,1013.92
2018-05-21T04:44:44.839Z,1013.85
2018-05-21T04:45:44.903Z,1013.88
2018-05-21T04:46:44.848Z,1013.85
2018-05-21T04:47:44.861Z,1013.84
2018-05-21T04:48:44.851Z,1013.92
2018-05-21T04:49:45.048Z,1013.89
2018-05-21T04:50:44.860Z,1013.88
2018-05-21T04:51:44.901Z,1013.84
2018-05-21T04:52:44.888Z,1013.89
2018-05-21T04:53:44.848Z,1013.83
2018-05-21T04:54:44.823Z,1013.84
2018-05-21T04:55:45.639Z,1013.94
2018-05-21T04:56:44.876Z,1013.89
2018-05-21T04:57:44.859Z,1013.92
2018-05-21T04:58:44.864Z,1013.87
2018-05-21T04:59:44.869Z,1013.90
2018-05-21T05:00:44.878Z,1013.86
2018-05-21T05:01:44.853Z,1013.86
2018-05-21T05:02:44.878Z,1013.88
2018-05-21T05:03:44.985Z,1013.92
2018-05-21T05:04:44.911Z,1013.90
2018-05-21T05:05:44.928Z,1013.87
2018-05-21T05:06:44.855Z,1013.95
2018-05-21T05:07:44.920Z,1013.89
2018-05-21T05:08:45.012Z,1013.92
2018-05-21T05:09:44.912Z,1013.95
2018-05-21T05:10:44.952Z,1014.00
2018-05-21T05:11:44.933Z,1013.90
2018-05-21T05:12:44.923Z,1013.92
2018-05-21T05:13:44.927Z,1013.96
2018-05-21T05:14:45.012Z,1013.94
2018-05-21T05:15:44.916Z,1013.93
2018-05-21T05:16:45.020Z,1013.96
2018-05-21T05:17:45.043Z,1013.93
2018-05-21T05:18:44.926Z,1013.96
2018-05-21T05:19:45.026Z,1014.02
2018-05-21T05:20:45.015Z,1014.04
2018-05-21T05:21:44.999Z,1014.02
2018-05-21T05:22:44.967Z,1014.01
2018-05-21T05:23:44.954Z,1014.02
2018-05-21T05:24:45.046Z,1013.96
2018-05-21T05:25:44.968Z,1014.02
2018-05-21T05:26:45.116Z,1014.10
2018-05-21T05:27:44.962Z,1014.06
2018-05-21T05:28:44.923Z,1014.12
2018-05-21T05:29:44.958Z,1014.16
2018-05-21T05:30:44.998Z,1014.09
2018-05-21T05:31:45.066Z,1014.13
2018-05-21T05:32:44.972Z,1014.12
2018-05-21T05:33:44.979Z,1014.01
2018-05-21T05:34:44.964Z,1014.13
2018-05-21T05:35:45.049Z,1013.99
2018-05-21T05:36:44.991Z,1014.21
2018-05-21T05:37:45.121Z,1014.16
2018-05-21T05:38:45.052Z,1014.15
2018-05-21T05:39:45.013Z,1014.15
2018-05-21T05:40:45.015Z,1014.01
2018-05-21T05:41:44.985Z,1013.98
2018-05-21T05:42:44.999Z,1014.11
2018-05-21T05:43:45.035Z,1014.14
2018-05-21T05:44:45.026Z,1014.03
2018-05-21T05:45:45.020Z,1013.98
2018-05-21T05:46:45.041Z,1014.16
2018-05-21T05:47:45.039Z,1014.17
2018-05-21T05:48:45.094Z,1013.90
2018-05-21T05:49:45.090Z,1013.89
2018-05-21T05:50:44.994Z,1013.94
2018-05-21T05:51:44.991Z,1013.91
2018-05-21T05:52:45.046Z,1013.97
2018-05-21T05:53:45.109Z,1013.91
2018-05-21T05:54:45.020Z,1013.97
2018-05-21T05:55:45.025Z,1013.95
2018-05-21T05:56:45.077Z,1014.04
2018-05-21T05:57:45.014Z,1013.94
2018-05-21T05:58:45.064Z,1014.06
2018-05-21T05:59:45.110Z,1014.03
2018-05-21T06:00:45.075Z,1014.40
2018-05-21T06:01:45.054Z,1014.06
2018-05-21T06:02:45.681Z,1014.14
2018-05-21T06:03:45.132Z,1014.34
2018-05-21T06:04:45.058Z,1014.43
2018-05-21T06:05:45.073Z,1014.33
2018-05-21T06:06:45.086Z,1014.43
2018-05-21T06:07:45.192Z,1013.99
2018-05-21T06:08:45.085Z,1014.47
2018-05-21T06:09:45.120Z,1014.04
2018-05-21T06:10:45.128Z,1014.37
2018-05-21T06:11:45.159Z,1014.37
2018-05-21T06:12:45.106Z,1014.46
2018-05-21T06:13:45.246Z,1014.36
2018-05-21T06:14:45.173Z,1014.49
2018-05-21T06:15:45.117Z,1014.44
2018-05-21T06:16:45.196Z,1014.42
2018-05-21T06:17:45.128Z,1014.39
2018-05-21T06:18:45.172Z,1014.38
2018-05-21T06:19:45.244Z,1014.42
2018-05-21T06:20:45.262Z,1014.39
2018-05-21T06:21:45.170Z,1014.38
2018-05-21T06:22:45.168Z,1014.40
2018-05-21T06:23:45.195Z,1014.37
2018-05-21T06:24:45.271Z,1014.39
2018-05-21T06:25:45.296Z,1014.60
2018-05-21T06:26:45.206Z,1014.43
2018-05-21T06:27:45.217Z,1014.34
2018-05-21T06:28:45.232Z,1014.43
2018-05-21T06:29:45.265Z,1014.42
2018-05-21T06:30:45.315Z,1014.51
2018-05-21T06:31:45.325Z,1014.45
2018-05-21T06:32:45.247Z,1014.56
2018-05-21T06:33:45.265Z,1014.56
2018-05-21T06:34:45.380Z,1014.56
2018-05-21T06:35:45.301Z,1014.60
2018-05-21T06:36:45.295Z,1014.57
2018-05-21T06:37:45.298Z,1014.61
2018-05-21T06:38:45.335Z,1014.61
2018-05-21T06:39:45.291Z,1014.66
2018-05-21T06:40:45.296Z,1014.64
2018-05-21T06:41:45.315Z,1014.70
2018-05-21T06:42:45.296Z,1014.69
2018-05-21T06:43:45.362Z,1014.82
2018-05-21T06:44:45.416Z,1014.84
2018-05-21T06:45:45.378Z,1014.75
2018-05-21T06:46:45.506Z,1014.86
2018-05-21T06:47:45.432Z,1014.90
2018-05-21T06:48:45.375Z,1014.93
2018-05-21T06:49:45.381Z,1015.01
2018-05-21T06:50:45.378Z,1015.08
2018-05-21T06:51:45.423Z,1015.05
2018-05-21T06:52:45.444Z,1015.08
2018-05-21T06:53:45.643Z,1015.19
2018-05-21T06:54:45.599Z,1015.25
2018-05-21T06:55:45.459Z,1015.30
2018-05-21T06:56:45.443Z,1015.38
2018-05-21T06:57:45.515Z,1015.59
2018-05-21T06:58:45.577Z,1015.59
2018-05-21T06:59:45.555Z,1015.72
2018-05-21T07:00:45.580Z,1015.73
2018-05-21T07:01:45.501Z,1015.60
2018-05-21T07:02:45.565Z,1015.62
2018-05-21T07:03:45.506Z,1015.48
2018-05-21T07:04:45.551Z,1015.51
2018-05-21T07:05:46.203Z,1015.77
2018-05-21T07:06:45.636Z,1015.64
2018-05-21T07:07:45.600Z,1015.87
2018-05-21T07:08:45.686Z,1015.83
2018-05-21T07:09:45.628Z,1015.91
2018-05-21T07:10:45.619Z,1016.05
2018-05-21T07:11:45.775Z,1016.19
2018-05-21T07:12:45.572Z,1016.54
2018-05-21T07:13:45.686Z,1016.91
2018-05-21T07:14:45.752Z,1018.28
2018-05-21T07:15:45.921Z,1019.62
2018-05-21T07:16:45.653Z,1020.04
2018-05-21T07:17:45.730Z,1019.98
2018-05-21T07:18:45.762Z,1020.92
2018-05-21T07:19:45.727Z,1022.44
2018-05-21T07:20:45.823Z,1022.67
2018-05-21T07:21:45.756Z,1021.99
2018-05-21T07:22:45.755Z,1022.73
2018-05-21T07:23:46.711Z,1023.85
2018-05-21T07:24:45.796Z,1024.68
2018-05-21T07:25:45.932Z,1024.78
2018-05-21T07:26:45.812Z,1024.41
2018-05-21T07:27:45.865Z,1023.37
2018-05-21T07:28:45.913Z,1023.62
2018-05-21T07:29:45.815Z,1024.92
2018-05-21T07:30:45.841Z,1026.83
2018-05-21T07:31:46.005Z,1028.77
2018-05-21T07:32:45.879Z,1029.38
2018-05-21T07:33:45.846Z,1030.03
2018-05-21T07:34:45.946Z,1031.18
2018-05-21T07:35:46.736Z,1030.61
2018-05-21T07:36:45.928Z,1029.92
2018-05-21T07:37:45.930Z,1030.02
2018-05-21T07:38:45.966Z,1028.47
2018-05-21T07:39:46.044Z,1027.65
2018-05-21T07:40:46.068Z,1032.49
2018-05-21T07:41:46.183Z,1035.80
2018-05-21T07:42:46.025Z,1035.41
2018-05-21T07:43:46.026Z,1035.07
2018-05-21T07:44:46.044Z,1036.36
2018-05-21T07:45:46.054Z,1038.00
2018-05-21T07:46:46.192Z,1039.55
2018-05-21T07:47:46.061Z,1040.89
2018-05-21T07:48:46.090Z,1037.22
2018-05-21T07:49:46.078Z,1035.34
2018-05-21T07:50:46.078Z,1038.19
2018-05-21T07:51:46.148Z,1040.83
2018-05-21T07:52:46.337Z,1039.19
2018-05-21T07:53:46.212Z,1036.45
2018-05-21T07:54:46.162Z,1034.77
2018-05-21T07:55:46.122Z,1034.04
2018-05-21T07:56:46.216Z,1035.64
2018-05-21T07:57:46.163Z,1037.20
2018-05-21T07:58:46.191Z,1040.90
2018-05-21T07:59:46.253Z,1041.69
2018-05-21T08:00:46.750Z,1042.58
2018-05-21T08:01:46.244Z,1042.35
2018-05-21T08:02:46.367Z,1038.75
2018-05-21T08:03:46.329Z,1029.47
2018-05-21T08:04:46.354Z,1029.79
2018-05-21T08:05:46.422Z,1036.19
2018-05-21T08:06:46.397Z,1037.97
2018-05-21T08:07:47.238Z,1036.78
2018-05-21T08:08:46.414Z,1035.25
2018-05-21T08:09:46.406Z,1038.23
2018-05-21T08:10:46.560Z,1037.81
2018-05-21T08:11:46.459Z,1034.64
2018-05-21T08:12:46.563Z,1034.43
2018-05-21T08:13:46.484Z,1035.88
2018-05-21T08:14:46.571Z,1035.13
2018-05-21T08:15:46.499Z,1036.96
2018-05-21T08:16:46.590Z,1037.25
2018-05-21T08:17:46.548Z,1038.45
2018-05-21T08:18:46.473Z,1038.72
2018-05-21T08:19:46.562Z,1038.38
2018-05-21T08:20:46.501Z,1038.00
2018-05-21T08:21:46.584Z,1038.62
2018-05-21T08:22:46.606Z,1039.01
2018-05-21T08:23:46.792Z,1037.70
2018-05-21T08:24:46.609Z,1038.39
2018-05-21T08:25:46.590Z,1039.51
2018-05-21T08:26:46.994Z,1038.47
2018-05-21T08:27:47.427Z,1037.66
2018-05-21T08:28:46.669Z,1040.23
2018-05-21T08:29:46.693Z,1038.94
2018-05-21T08:30:46.766Z,1037.44
2018-05-21T08:31:46.724Z,1034.04
2018-05-21T08:32:46.914Z,1031.03
2018-05-21T08:33:46.819Z,1029.29
2018-05-21T08:34:46.877Z,1028.64
2018-05-21T08:35:46.954Z,1025.54
2018-05-21T08:36:46.817Z,1020.94
2018-05-21T08:37:46.796Z,1018.33
2018-05-21T08:38:47.088Z,1017.50
2018-05-21T08:39:47.084Z,1016.93
2018-05-21T08:40:47.037Z,1016.78
2018-05-21T08:41:47.017Z,1016.26
2018-05-21T08:42:47.082Z,1016.12
2018-05-21T08:43:47.117Z,1015.93
2018-05-21T08:44:46.921Z,1015.88
2018-05-21T08:45:47.023Z,1015.71
2018-05-21T08:46:47.139Z,1015.61
2018-05-21T08:47:47.001Z,1015.53
2018-05-21T08:48:47.027Z,1015.45
2018-05-21T08:49:47.163Z,1015.36
2018-05-21T08:50:47.157Z,1015.24
2018-05-21T08:51:47.029Z,1015.19
2018-05-21T08:52:47.083Z,1015.13
2018-05-21T08:53:47.092Z,1015.06
2018-05-21T08:54:47.149Z,1014.98
2018-05-21T08:55:47.162Z,1014.96
2018-05-21T08:56:47.341Z,1014.96
2018-05-21T08:57:47.141Z,1014.86
2018-05-21T08:58:47.316Z,1015.03
2018-05-21T08:59:47.779Z,1014.82
2018-05-21T09:00:47.243Z,1014.74
2018-05-21T09:01:47.277Z,1014.76
2018-05-21T09:02:47.291Z,1014.67
2018-05-21T09:03:47.233Z,1014.60
2018-05-21T09:04:47.377Z,1014.63
2018-05-21T09:05:47.368Z,1014.56
2018-05-21T09:06:47.344Z,1014.60
2018-05-21T09:07:47.359Z,1014.57
2018-05-21T09:08:47.565Z,1014.55
2018-05-21T09:09:47.372Z,1014.53
2018-05-21T09:10:47.501Z,1014.47
2018-05-21T09:11:47.467Z,1014.45
2018-05-21T09:12:47.418Z,1014.52
2018-05-21T09:13:47.644Z,1014.47
2018-05-21T09:14:47.506Z,1014.44
2018-05-21T09:15:47.721Z,1014.41
2018-05-21T09:26:07.196Z,1015.80
2018-05-21T09:27:08.387Z,1016.04
2018-05-21T09:28:08.677Z,1016.44
2018-05-21T09:29:07.741Z,1017.02
2018-05-21T09:30:06.456Z,1017.47
2018-05-21T09:31:06.456Z,1017.85
2018-05-21T09:32:06.433Z,1017.19
2018-05-21T09:33:06.443Z,1015.40
2018-05-21T09:34:06.517Z,1014.49
2018-05-21T09:35:06.480Z,1014.10
2018-05-21T09:36:06.560Z,1014.16
2018-05-21T09:37:06.531Z,1013.87
2018-05-21T09:38:06.538Z,1013.89
2018-05-21T09:39:06.566Z,1013.81
2018-05-21T09:40:06.654Z,1013.72
2018-05-21T09:41:06.631Z,1013.71
2018-05-21T09:42:06.726Z,1013.77
2018-05-21T09:43:06.694Z,1013.77
2018-05-21T09:44:06.656Z,1013.76
2018-05-21T09:45:06.694Z,1013.69
2018-05-21T09:46:06.721Z,1013.66
2018-05-21T09:47:06.723Z,1013.65
2018-05-21T09:48:06.740Z,1013.63
2018-05-21T09:49:06.806Z,1013.72
2018-05-21T09:50:06.781Z,1013.86
2018-05-21T09:51:06.812Z,1013.59
2018-05-21T09:52:06.825Z,1013.70
2018-05-21T09:53:06.838Z,1013.48
2018-05-21T09:54:06.859Z,1013.49
2018-05-21T09:55:06.957Z,1013.58
2018-05-21T09:56:06.889Z,1013.58
2018-05-21T09:57:06.904Z,1013.51
2018-05-21T09:58:06.967Z,1013.43
2018-05-21T09:59:07.801Z,1013.43
2018-05-21T10:00:06.992Z,1013.48
2018-05-21T10:01:07.009Z,1013.44
2018-05-21T10:02:07.009Z,1013.46
2018-05-21T10:03:07.038Z,1013.29
2018-05-21T10:04:07.111Z,1013.33
2018-05-21T10:05:07.066Z,1013.26
2018-05-21T10:06:07.097Z,1013.39
2018-05-21T10:07:07.154Z,1013.18
2018-05-21T10:08:07.140Z,1013.32
2018-05-21T10:09:07.162Z,1013.36
2018-05-21T10:10:07.208Z,1013.19
2018-05-21T10:11:07.242Z,1013.16
2018-05-21T10:12:07.242Z,1013.08
2018-05-21T10:13:07.226Z,1013.07
2018-05-21T10:14:07.295Z,1013.10
2018-05-21T10:15:07.262Z,1013.09
2018-05-21T10:16:07.364Z,1013.00
2018-05-21T10:17:07.321Z,1013.07
2018-05-21T10:18:07.415Z,1012.98
2018-05-21T10:19:07.346Z,1012.99
2018-05-21T10:20:07.401Z,1013.10
2018-05-21T10:21:07.454Z,1013.01
2018-05-21T10:22:07.485Z,1012.91
2018-05-21T10:23:07.410Z,1012.87
2018-05-21T10:24:07.446Z,1013.04
2018-05-21T10:25:07.448Z,1012.94
2018-05-21T10:26:07.579Z,1012.85
2018-05-21T10:27:07.492Z,1012.82
2018-05-21T10:28:07.545Z,1012.79
2018-05-21T10:29:07.560Z,1012.75
2018-05-21T10:30:07.551Z,1012.73
2018-05-21T10:31:07.633Z,1012.72
2018-05-21T10:32:07.613Z,1012.74
2018-05-21T10:33:07.601Z,1012.65
2018-05-21T10:34:07.639Z,1012.76
2018-05-21T10:35:07.709Z,1012.64
2018-05-21T10:36:07.665Z,1012.44
2018-05-21T10:37:07.820Z,1012.56
2018-05-21T10:38:07.697Z,1012.46
2018-05-21T10:39:07.711Z,1012.42
2018-05-21T10:40:07.737Z,1012.36
2018-05-21T10:41:07.780Z,1012.22
2018-05-21T10:42:07.831Z,1011.93
2018-05-21T10:43:07.781Z,1011.94
2018-05-21T10:44:07.796Z,1011.98
2018-05-21T10:45:07.811Z,1011.90
2018-05-21T10:46:07.856Z,1011.79
2018-05-21T10:47:07.903Z,1011.90
2018-05-21T10:48:07.885Z,1011.89
2018-05-21T10:49:07.908Z,1011.97
2018-05-21T10:50:07.893Z,1011.90
2018-05-21T10:51:07.910Z,1011.78
2018-05-21T10:52:07.912Z,1011.80
2018-05-21T10:53:07.974Z,1011.98
2018-05-21T10:54:07.941Z,1011.77
2018-05-21T10:55:07.951Z,1011.76
2018-05-21T10:56:08.023Z,1011.80
2018-05-21T10:57:07.976Z,1012.00
2018-05-21T10:58:08.019Z,1011.86
2018-05-21T10:59:08.006Z,1011.88
2018-05-21T11:00:08.016Z,1011.80
2018-05-21T11:01:08.034Z,1011.75
2018-05-21T11:02:08.029Z,1011.78
2018-05-21T11:03:08.044Z,1011.69
2018-05-21T11:04:08.138Z,1011.73
2018-05-21T11:05:08.104Z,1011.57
2018-05-21T11:06:08.085Z,1011.55
2018-05-21T11:07:08.176Z,1011.67
2018-05-21T11:08:08.107Z,1011.55
2018-05-21T11:09:08.114Z,1011.66
2018-05-21T11:10:08.138Z,1011.59
2018-05-21T11:11:08.138Z,1011.45
2018-05-21T11:12:08.230Z,1011.47
2018-05-21T11:13:08.148Z,1011.72
2018-05-21T11:14:08.159Z,1011.40
2018-05-21T11:15:08.197Z,1011.49
2018-05-21T11:17:08.245Z,1011.29
2018-05-21T11:18:08.226Z,1011.37
2018-05-21T11:19:08.229Z,1011.43
2018-05-21T11:20:08.210Z,1011.29
2018-05-21T11:21:08.258Z,1011.24
2018-05-21T11:22:08.302Z,1011.48
2018-05-21T11:23:08.242Z,1011.28
2018-05-21T11:24:08.289Z,1011.31
2018-05-21T11:25:08.258Z,1011.28
2018-05-21T11:26:08.278Z,1011.26
2018-05-21T11:27:08.322Z,1011.21
2018-05-21T11:28:08.289Z,1011.22
2018-05-21T11:29:08.341Z,1011.21
2018-05-21T11:30:08.300Z,1011.25
2018-05-21T11:31:08.302Z,1011.28
2018-05-21T11:32:08.341Z,1011.18
2018-05-21T11:33:08.309Z,1011.12
2018-05-21T11:34:08.325Z,1011.11
2018-05-21T11:35:08.335Z,1011.09
2018-05-21T11:36:08.857Z,1011.14
2018-05-21T11:37:08.402Z,1010.97
2018-05-21T11:38:08.370Z,1011.08
2018-05-21T11:39:08.369Z,1011.07
2018-05-21T11:40:08.487Z,1011.19
2018-05-21T11:41:08.396Z,1011.04
2018-05-21T11:42:08.384Z,1011.03
2018-05-21T11:43:08.462Z,1011.06
2018-05-21T11:44:08.424Z,1011.11
2018-05-21T11:45:08.409Z,1011.19
2018-05-21T11:46:08.443Z,1010.97
2018-05-21T11:47:08.475Z,1011.00
2018-05-21T11:48:08.433Z,1010.99
2018-05-21T11:49:08.441Z,1011.00
2018-05-21T11:50:08.457Z,1010.97
2018-05-21T11:51:08.452Z,1010.88
2018-05-21T11:52:08.523Z,1010.77
2018-05-21T11:53:08.472Z,1010.87
2018-05-21T11:54:08.483Z,1010.92
2018-05-21T11:55:08.482Z,1010.77
2018-05-21T11:56:08.498Z,1010.88
2018-05-21T11:57:08.523Z,1010.79
2018-05-21T11:58:08.571Z,1010.72
2018-05-21T11:59:08.515Z,1010.85
2018-05-21T12:00:08.572Z,1010.80
2018-05-21T12:01:08.542Z,1010.79
2018-05-21T12:02:08.639Z,1010.73
2018-05-21T12:03:08.576Z,1010.87
2018-05-21T12:04:08.551Z,1010.90
2018-05-21T12:05:08.555Z,1010.98
2018-05-21T12:06:08.700Z,1010.72
2018-05-21T12:07:08.571Z,1010.85
2018-05-21T12:08:08.578Z,1010.72
2018-05-21T12:09:08.614Z,1010.73
2018-05-21T12:10:08.592Z,1010.75
2018-05-21T12:11:08.602Z,1010.92
2018-05-21T12:12:08.597Z,1010.94
2018-05-21T12:13:08.607Z,1010.83
2018-05-21T12:14:08.664Z,1010.71
2018-05-21T12:15:08.620Z,1010.78
2018-05-21T12:16:09.374Z,1010.67
2018-05-21T12:17:08.700Z,1010.63
2018-05-21T12:18:08.642Z,1010.63
2018-05-21T12:19:08.715Z,1010.60
2018-05-21T12:20:08.657Z,1010.59
2018-05-21T12:21:08.676Z,1010.56
2018-05-21T12:22:08.684Z,1010.53